sensor_id;sensor_type;location;lat;lon;timestamp;pressure;altitude;pressure_sealevel;temperature;humidity
48644;BME280;34928;37.302;-121.984;2023-11-21T00:02:33;101601.0;;;23.35;28.86
48644;BME280;34928;37.302;-121.984;2023-11-21T00:12:38;101603.0;;;23.39;28.94
48644;BME280;34928;37.302;-121.984;2023-11-21T00:22:43;101609.0;;;23.45;28.97
48644;BME280;34928;37.302;-121.984;2023-11-21T00:32:48;101611.0;;;23.48;29.02
48644;BME280;34928;37.302;-121.984;2023-11-21T00:42:52;101606.0;;;23.04;29.03
48644;BME280;34928;37.302;-121.984;2023-11-21T00:52:58;101601.0;;;23.79;29.01
48644;BME280;34928;37.302;-121.984;2023-11-21T01:03:03;101601.0;;;23.61;28.94
48644;BME280;34928;37.302;-121.984;2023-11-21T01:13:09;101605.0;;;23.38;28.86
48644;BME280;34928;37.302;-121.984;2023-11-21T01:23:13;101616.0;;;23.40;28.82
48644;BME280;34928;37.302;-121.984;2023-11-21T01:33:18;101615.0;;;23.44;28.78
48644;BME280;34928;37.302;-121.984;2023-11-21T01:43:24;101619.0;;;23.74;28.69
48644;BME280;34928;37.302;-121.984;2023-11-21T01:53:30;101625.0;;;23.77;28.65
48644;BME280;34928;37.302;-121.984;2023-11-21T02:03:38;101621.0;;;23.51;28.59
48644;BME280;34928;37.302;-121.984;2023-11-21T02:13:44;101613.0;;;23.52;28.52
48644;BME280;34928;37.302;-121.984;2023-11-21T02:23:49;101616.0;;;23.57;28.37
48644;BME280;34928;37.302;-121.984;2023-11-21T02:33:54;101615.0;;;23.56;28.39
48644;BME280;34928;37.302;-121.984;2023-11-21T02:44:00;101613.0;;;23.85;27.69
48644;BME280;34928;37.302;-121.984;2023-11-21T02:54:10;101628.0;;;23.92;27.48
48644;BME280;34928;37.302;-121.984;2023-11-21T03:04:19;101626.0;;;23.48;27.25
48644;BME280;34928;37.302;-121.984;2023-11-21T03:14:23;101634.0;;;23.99;27.10
48644;BME280;34928;37.302;-121.984;2023-11-21T03:24:29;101642.0;;;23.51;26.96
48644;BME280;34928;37.302;-121.984;2023-11-21T03:34:33;101640.0;;;23.47;26.93
48644;BME280;34928;37.302;-121.984;2023-11-21T03:44:38;101645.0;;;23.92;27.96
48644;BME280;34928;37.302;-121.984;2023-11-21T03:54:43;101664.0;;;23.93;28.06
48644;BME280;34928;37.302;-121.984;2023-11-21T04:04:48;101684.0;;;23.94;28.20
48644;BME280;34928;37.302;-121.984;2023-11-21T04:14:52;101689.0;;;23.75;28.02
48644;BME280;34928;37.302;-121.984;2023-11-21T04:25:00;101698.0;;;23.62;28.14
48644;BME280;34928;37.302;-121.984;2023-11-21T04:35:04;101701.0;;;23.71;27.93
48644;BME280;34928;37.302;-121.984;2023-11-21T04:45:09;101701.0;;;23.83;27.97
48644;BME280;34928;37.302;-121.984;2023-11-21T04:55:14;101707.0;;;24.39;28.09
48644;BME280;34928;37.302;-121.984;2023-11-21T05:05:17;101707.0;;;24.03;28.29
48644;BME280;34928;37.302;-121.984;2023-11-21T05:15:23;101704.0;;;24.09;28.03
48644;BME280;34928;37.302;-121.984;2023-11-21T05:25:28;101705.0;;;24.22;28.03
48644;BME280;34928;37.302;-121.984;2023-11-21T05:35:33;101725.0;;;24.31;27.84
48644;BME280;34928;37.302;-121.984;2023-11-21T05:45:38;101726.0;;;24.37;27.84
48644;BME280;34928;37.302;-121.984;2023-11-21T05:55:42;101731.0;;;24.18;27.72
48644;BME280;34928;37.302;-121.984;2023-11-21T06:05:47;101738.0;;;24.53;27.66
48644;BME280;34928;37.302;-121.984;2023-11-21T06:15:53;101742.0;;;24.61;27.55
48644;BME280;34928;37.302;-121.984;2023-11-21T06:25:59;101736.0;;;24.68;27.67
48644;BME280;34928;37.302;-121.984;2023-11-21T06:36:04;101736.0;;;24.46;27.40
48644;BME280;34928;37.302;-121.984;2023-11-21T06:46:08;101724.0;;;24.75;27.68
48644;BME280;34928;37.302;-121.984;2023-11-21T06:56:21;101714.0;;;24.75;27.53
48644;BME280;34928;37.302;-121.984;2023-11-21T07:06:27;101714.0;;;24.77;27.51
48644;BME280;34928;37.302;-121.984;2023-11-21T07:16:33;101711.0;;;24.45;27.43
48644;BME280;34928;37.302;-121.984;2023-11-21T07:26:38;101714.0;;;24.70;27.18
48644;BME280;34928;37.302;-121.984;2023-11-21T07:36:43;101725.0;;;24.64;27.00
48644;BME280;34928;37.302;-121.984;2023-11-21T07:46:49;101734.0;;;24.59;26.87
48644;BME280;34928;37.302;-121.984;2023-11-21T07:56:53;101742.0;;;24.55;26.72
48644;BME280;34928;37.302;-121.984;2023-11-21T08:06:58;101751.0;;;24.48;26.60
48644;BME280;34928;37.302;-121.984;2023-11-21T08:17:03;101760.0;;;24.40;26.52
48644;BME280;34928;37.302;-121.984;2023-11-21T08:27:08;101758.0;;;24.35;26.44
48644;BME280;34928;37.302;-121.984;2023-11-21T08:37:15;101762.0;;;24.26;26.36
48644;BME280;34928;37.302;-121.984;2023-11-21T08:47:23;101773.0;;;24.18;26.28
48644;BME280;34928;37.302;-121.984;2023-11-21T08:57:28;101777.0;;;24.31;26.26
48644;BME280;34928;37.302;-121.984;2023-11-21T09:07:33;101762.0;;;23.98;26.81
48644;BME280;34928;37.302;-121.984;2023-11-21T09:17:38;101780.0;;;23.97;26.25
48644;BME280;34928;37.302;-121.984;2023-11-21T09:27:43;101789.0;;;24.32;26.26
48644;BME280;34928;37.302;-121.984;2023-11-21T09:37:48;101782.0;;;24.22;26.24
48644;BME280;34928;37.302;-121.984;2023-11-21T09:47:53;101786.0;;;23.85;26.23
48644;BME280;34928;37.302;-121.984;2023-11-21T09:57:58;101795.0;;;24.04;26.20
48644;BME280;34928;37.302;-121.984;2023-11-21T10:08:04;101801.0;;;23.64;26.22
48644;BME280;34928;37.302;-121.984;2023-11-21T10:18:08;101811.0;;;23.82;26.23
48644;BME280;34928;37.302;-121.984;2023-11-21T10:28:13;101816.0;;;23.73;26.25
48644;BME280;34928;37.302;-121.984;2023-11-21T10:38:18;101818.0;;;23.68;26.22
48644;BME280;34928;37.302;-121.984;2023-11-21T10:48:23;101803.0;;;23.32;26.53
48644;BME280;34928;37.302;-121.984;2023-11-21T10:58:28;101806.0;;;23.48;26.48
48644;BME280;34928;37.302;-121.984;2023-11-21T11:08:33;101808.0;;;23.39;26.46
48644;BME280;34928;37.302;-121.984;2023-11-21T11:18:39;101807.0;;;23.55;26.39
48644;BME280;34928;37.302;-121.984;2023-11-21T11:28:53;101809.0;;;23.21;26.44
48644;BME280;34928;37.302;-121.984;2023-11-21T11:39:04;101838.0;;;23.12;26.46
48644;BME280;34928;37.302;-121.984;2023-11-21T11:49:29;101804.0;;;23.23;26.49
48644;BME280;34928;37.302;-121.984;2023-11-21T12:09:54;101782.0;;;23.27;26.51
48644;BME280;34928;37.302;-121.984;2023-11-21T12:20:03;101828.0;;;22.95;26.53
48644;BME280;34928;37.302;-121.984;2023-11-21T12:30:09;101887.0;;;22.83;26.56
48644;BME280;34928;37.302;-121.984;2023-11-21T12:40:12;101923.0;;;22.69;26.61
48644;BME280;34928;37.302;-121.984;2023-11-21T12:50:20;101911.0;;;22.80;26.67
48644;BME280;34928;37.302;-121.984;2023-11-21T13:00:30;101934.0;;;22.70;26.65
48644;BME280;34928;37.302;-121.984;2023-11-21T13:10:39;101934.0;;;22.60;26.66
48644;BME280;34928;37.302;-121.984;2023-11-21T13:20:44;101922.0;;;22.50;26.66
48644;BME280;34928;37.302;-121.984;2023-11-21T13:30:48;101958.0;;;22.40;27.09
48644;BME280;34928;37.302;-121.984;2023-11-21T13:40:53;101965.0;;;22.44;27.52
48644;BME280;34928;37.302;-121.984;2023-11-21T13:50:58;101966.0;;;22.52;27.64
48644;BME280;34928;37.302;-121.984;2023-11-21T14:01:03;101974.0;;;22.60;27.78
48644;BME280;34928;37.302;-121.984;2023-11-21T14:11:08;102000.0;;;22.47;27.88
48644;BME280;34928;37.302;-121.984;2023-11-21T14:21:13;102033.0;;;22.78;28.06
48644;BME280;34928;37.302;-121.984;2023-11-21T14:31:18;102045.0;;;22.91;28.16
48644;BME280;34928;37.302;-121.984;2023-11-21T14:41:22;102048.0;;;23.02;28.27
48644;BME280;34928;37.302;-121.984;2023-11-21T14:51:28;102067.0;;;23.20;28.30
48644;BME280;34928;37.302;-121.984;2023-11-21T15:01:33;102086.0;;;23.32;28.08
48644;BME280;34928;37.302;-121.984;2023-11-21T15:11:38;102099.0;;;23.23;28.15
48644;BME280;34928;37.302;-121.984;2023-11-21T15:21:43;102111.0;;;23.30;27.70
48644;BME280;34928;37.302;-121.984;2023-11-21T15:31:48;102121.0;;;23.16;27.54
48644;BME280;34928;37.302;-121.984;2023-11-21T15:41:53;102131.0;;;23.43;28.09
48644;BME280;34928;37.302;-121.984;2023-11-21T15:51:58;102141.0;;;23.46;28.04
48644;BME280;34928;37.302;-121.984;2023-11-21T16:02:04;102143.0;;;23.25;27.89
48644;BME280;34928;37.302;-121.984;2023-11-21T16:12:08;102147.0;;;23.26;28.12
48644;BME280;34928;37.302;-121.984;2023-11-21T16:22:13;102143.0;;;23.45;27.89
48644;BME280;34928;37.302;-121.984;2023-11-21T16:32:18;102160.0;;;23.43;27.82
48644;BME280;34928;37.302;-121.984;2023-11-21T16:42:23;102162.0;;;23.19;27.72
48644;BME280;34928;37.302;-121.984;2023-11-21T16:52:27;102175.0;;;23.17;27.64
48644;BME280;34928;37.302;-121.984;2023-11-21T17:02:32;102164.0;;;23.15;27.59
48644;BME280;34928;37.302;-121.984;2023-11-21T17:12:39;102176.0;;;23.11;27.55
48644;BME280;34928;37.302;-121.984;2023-11-21T17:22:42;102180.0;;;23.11;27.50
48644;BME280;34928;37.302;-121.984;2023-11-21T17:32:48;102184.0;;;23.33;27.46
48644;BME280;34928;37.302;-121.984;2023-11-21T17:42:53;102179.0;;;23.06;27.48
48644;BME280;34928;37.302;-121.984;2023-11-21T17:52:58;102186.0;;;23.07;27.52
48644;BME280;34928;37.302;-121.984;2023-11-21T18:03:02;102190.0;;;23.30;27.52
48644;BME280;34928;37.302;-121.984;2023-11-21T18:13:08;102200.0;;;23.09;27.46
48644;BME280;34928;37.302;-121.984;2023-11-21T18:23:13;102204.0;;;23.10;27.46
48644;BME280;34928;37.302;-121.984;2023-11-21T18:33:17;102209.0;;;23.14;27.43
48644;BME280;34928;37.302;-121.984;2023-11-21T18:43:23;102201.0;;;23.15;27.43
48644;BME280;34928;37.302;-121.984;2023-11-21T18:53:28;102191.0;;;23.17;27.41
48644;BME280;34928;37.302;-121.984;2023-11-21T19:03:33;102164.0;;;23.19;27.44
48644;BME280;34928;37.302;-121.984;2023-11-21T19:13:38;102162.0;;;23.21;27.44
48644;BME280;34928;37.302;-121.984;2023-11-21T19:23:43;102139.0;;;23.26;27.48
48644;BME280;34928;37.302;-121.984;2023-11-21T19:33:48;102123.0;;;23.27;27.53
48644;BME280;34928;37.302;-121.984;2023-11-21T19:43:53;102099.0;;;23.32;27.52
48644;BME280;34928;37.302;-121.984;2023-11-21T19:53:58;102090.0;;;23.59;27.51
48644;BME280;34928;37.302;-121.984;2023-11-21T20:04:03;102070.0;;;23.63;27.53
48644;BME280;34928;37.302;-121.984;2023-11-21T20:14:08;102060.0;;;23.45;27.58
48644;BME280;34928;37.302;-121.984;2023-11-21T20:24:13;102037.0;;;23.47;27.61
48644;BME280;34928;37.302;-121.984;2023-11-21T20:34:18;102034.0;;;23.49;27.64
48644;BME280;34928;37.302;-121.984;2023-11-21T20:44:23;102026.0;;;23.54;27.66
48644;BME280;34928;37.302;-121.984;2023-11-21T20:54:28;102003.0;;;23.59;27.64
48644;BME280;34928;37.302;-121.984;2023-11-21T21:04:32;101997.0;;;23.65;27.66
48644;BME280;34928;37.302;-121.984;2023-11-21T21:14:38;102000.0;;;23.70;27.69
48644;BME280;34928;37.302;-121.984;2023-11-21T21:24:43;101983.0;;;23.73;27.75
48644;BME280;34928;37.302;-121.984;2023-11-21T21:34:48;101976.0;;;23.77;27.81
48644;BME280;34928;37.302;-121.984;2023-11-21T21:44:53;101972.0;;;23.57;27.87
48644;BME280;34928;37.302;-121.984;2023-11-21T21:54:57;101954.0;;;23.62;27.91
48644;BME280;34928;37.302;-121.984;2023-11-21T22:05:02;101951.0;;;23.93;27.92
48644;BME280;34928;37.302;-121.984;2023-11-21T22:15:08;101938.0;;;23.97;27.97
48644;BME280;34928;37.302;-121.984;2023-11-21T22:25:13;101933.0;;;23.76;28.15
48644;BME280;34928;37.302;-121.984;2023-11-21T22:35:17;101931.0;;;23.59;28.22
48644;BME280;34928;37.302;-121.984;2023-11-21T22:45:23;101934.0;;;23.86;28.29
48644;BME280;34928;37.302;-121.984;2023-11-21T22:55:28;101932.0;;;23.92;28.23
48644;BME280;34928;37.302;-121.984;2023-11-21T23:05:32;101942.0;;;23.95;27.94
48644;BME280;34928;37.302;-121.984;2023-11-21T23:15:38;101938.0;;;23.75;27.62
48644;BME280;34928;37.302;-121.984;2023-11-21T23:25:43;101941.0;;;23.78;27.47
48644;BME280;34928;37.302;-121.984;2023-11-21T23:35:47;101939.0;;;24.05;27.45
48644;BME280;34928;37.302;-121.984;2023-11-21T23:45:53;101948.0;;;23.85;27.53
48644;BME280;34928;37.302;-121.984;2023-11-21T23:55:58;101942.0;;;24.10;27.56
